Time;durP1;ratioP1;P1;durP2;ratioP2;P2;SDS_P1;SDS_P2;PMS_P1;PMS_P2;Temp;Humidity;BMP_temperature;BMP_pressure;BME280_temperature;BME280_humidity;BME280_pressure;Samples;Min_cycle;Max_cycle;Signal;HPM_P1;HPM_P2
2021/12/21 00:02:02;;;;;;;6.10;3.15;;;5.70;56.50;;;;;;5073960;28;20074;-91
2021/12/21 00:04:27;;;;;;;4.35;2.40;;;5.70;56.20;;;;;;5036327;28;20031;-93
2021/12/21 00:06:53;;;;;;;4.80;2.50;;;5.90;55.70;;;;;;5036060;28;20041;-81
2021/12/21 00:09:18;;;;;;;5.95;2.58;;;5.60;56.50;;;;;;5059396;28;20021;-81
2021/12/21 00:11:44;;;;;;;4.75;2.20;;;5.90;56.10;;;;;;5056363;28;20031;-81
2021/12/21 00:14:28;;;;;;;6.72;2.63;;;5.70;55.20;;;;;;5073770;28;20023;-80
2021/12/21 00:19:43;;;;;;;6.32;2.70;;;5.80;55.90;;;;;;5059861;28;20008;-81
2021/12/21 00:22:30;;;;;;;5.47;2.50;;;5.70;55.40;;;;;;5073498;28;20029;-81
2021/12/21 00:24:54;;;;;;;5.38;2.17;;;6.10;55.00;;;;;;5072887;28;20025;-81
2021/12/21 00:27:21;;;;;;;4.55;2.17;;;5.60;55.20;;;;;;5073850;28;20391;-81
2021/12/21 00:29:46;;;;;;;4.57;2.35;;;5.80;55.00;;;;;;5055801;28;20020;-79
2021/12/21 00:32:12;;;;;;;4.18;2.47;;;5.90;54.30;;;;;;5055562;28;20486;-81
2021/12/21 00:34:39;;;;;;;5.25;2.30;;;5.60;54.60;;;;;;5055711;28;20028;-81
2021/12/21 00:37:05;;;;;;;4.22;2.30;;;5.00;55.70;;;;;;5055772;28;20144;-82
2021/12/21 00:39:32;;;;;;;4.88;2.40;;;5.20;56.30;;;;;;5055222;28;20025;-82
2021/12/21 00:41:57;;;;;;;4.30;2.20;;;5.50;55.10;;;;;;5055783;28;20566;-81
2021/12/21 00:44:23;;;;;;;4.38;2.50;;;5.90;54.40;;;;;;5055506;28;20111;-82
2021/12/21 00:46:48;;;;;;;4.82;2.20;;;6.10;52.90;;;;;;5054930;28;20123;-82
2021/12/21 00:49:16;;;;;;;4.93;2.33;;;5.70;53.80;;;;;;5055691;28;20119;-81
2021/12/21 00:51:43;;;;;;;6.22;2.65;;;5.60;53.60;;;;;;5055665;28;20028;-81
2021/12/21 00:54:10;;;;;;;4.68;2.25;;;6.00;53.00;;;;;;5055107;28;20418;-79
2021/12/21 00:56:36;;;;;;;4.35;2.20;;;6.00;52.40;;;;;;5073058;28;20029;-81
2021/12/21 00:59:02;;;;;;;4.57;2.15;;;6.30;52.90;;;;;;5055292;28;20017;-80
2021/12/21 01:01:28;;;;;;;5.32;2.28;;;6.70;51.70;;;;;;5055630;28;20024;-80
2021/12/21 01:03:55;;;;;;;4.05;2.20;;;6.40;51.90;;;;;;5077320;28;20069;-81
2021/12/21 01:09:08;;;;;;;4.55;2.22;;;5.90;52.60;;;;;;5077592;28;20037;-80
2021/12/21 01:11:37;;;;;;;4.70;2.08;;;5.50;53.20;;;;;;5076667;28;20025;-81
2021/12/21 01:15:16;;;;;;;6.22;2.30;;;6.10;52.60;;;;;;5077071;28;20459;-80
2021/12/21 01:17:06;;;;;;;4.60;2.20;;;6.20;51.20;;;;;;5060266;28;20135;-81
2021/12/21 01:25:53;;;;;;;4.87;2.30;;;6.40;51.00;;;;;;4995987;28;20437;-81
2021/12/21 01:30:52;;;;;;;4.47;2.40;;;5.80;51.90;;;;;;4996024;28;20109;-82
2021/12/21 01:35:47;;;;;;;4.05;2.13;;;6.50;50.80;;;;;;4995745;28;20030;-81
2021/12/21 01:41:08;;;;;;;4.63;2.40;;;6.70;49.70;;;;;;4995172;28;20096;-82
2021/12/21 01:43:41;;;;;;;5.68;2.72;;;6.50;50.10;;;;;;4978871;28;20081;-81
2021/12/21 01:51:36;;;;;;;4.97;2.33;;;6.00;51.90;;;;;;4995631;28;20060;-81
2021/12/21 01:54:03;;;;;;;5.47;2.50;;;6.00;51.10;;;;;;4960621;28;20553;-81
2021/12/21 01:56:29;;;;;;;4.95;2.33;;;6.20;50.80;;;;;;4976202;28;20043;-82
2021/12/21 01:58:56;;;;;;;6.07;2.50;;;6.20;51.10;;;;;;4975861;28;20022;-82
2021/12/21 02:01:26;;;;;;;4.38;2.55;;;6.40;50.30;;;;;;5008452;28;20032;-83
2021/12/21 02:03:53;;;;;;;4.90;2.25;;;6.40;50.30;;;;;;5058524;28;20029;-82
2021/12/21 02:06:24;;;;;;;4.93;2.72;;;6.20;50.30;;;;;;5058297;28;20048;-84
2021/12/21 02:08:51;;;;;;;5.93;2.53;;;6.40;50.30;;;;;;5058429;28;20025;-83
2021/12/21 02:11:17;;;;;;;5.00;2.20;;;6.70;50.40;;;;;;5058340;28;20036;-82
2021/12/21 02:13:48;;;;;;;3.97;2.20;;;6.60;49.10;;;;;;5057262;28;20116;-81
2021/12/21 02:16:22;;;;;;;6.38;2.30;;;6.00;50.30;;;;;;5058110;28;20028;-80
2021/12/21 02:18:59;;;;;;;5.10;2.25;;;6.20;50.80;;;;;;5057895;28;20082;-82
2021/12/21 02:23:55;;;;;;;5.53;2.60;;;5.90;50.70;;;;;;5075563;28;20016;-81
2021/12/21 02:26:39;;;;;;;4.90;2.30;;;6.20;50.40;;;;;;5057982;28;20047;-81
2021/12/21 02:31:38;;;;;;;4.47;2.20;;;6.80;49.30;;;;;;5075765;28;20020;-82
2021/12/21 02:34:04;;;;;;;4.35;2.17;;;6.50;49.60;;;;;;5058006;28;20025;-82
2021/12/21 02:36:30;;;;;;;5.38;2.28;;;6.90;48.90;;;;;;5057841;28;20033;-82
2021/12/21 02:38:56;;;;;;;4.55;2.30;;;7.00;48.50;;;;;;5057095;28;20028;-84
2021/12/21 02:41:22;;;;;;;4.50;2.42;;;6.80;48.70;;;;;;5057785;28;20037;-82
2021/12/21 02:43:48;;;;;;;5.18;2.50;;;7.00;48.90;;;;;;5057990;28;20017;-84
2021/12/21 02:46:14;;;;;;;4.22;2.28;;;6.80;48.30;;;;;;5057453;28;20039;-83
2021/12/21 02:48:40;;;;;;;5.95;2.30;;;6.60;48.90;;;;;;5075585;28;20029;-81
2021/12/21 02:51:31;;;;;;;4.93;2.47;;;5.90;50.10;;;;;;5057443;28;20093;-82
2021/12/21 02:54:02;;;;;;;5.43;2.65;;;6.10;50.20;;;;;;5075067;28;20166;-82
2021/12/21 02:56:47;;;;;;;4.97;2.30;;;6.70;49.80;;;;;;5057552;28;20029;-83
2021/12/21 02:59:13;;;;;;;4.93;2.28;;;7.00;48.40;;;;;;5057667;28;20025;-81
2021/12/21 03:01:39;;;;;;;4.85;2.53;;;6.70;48.70;;;;;;5057251;28;20487;-81
2021/12/21 03:04:07;;;;;;;4.22;2.28;;;6.40;49.70;;;;;;5057504;28;20025;-82
2021/12/21 03:14:36;;;;;;;6.30;2.25;;;6.10;49.50;;;;;;5075317;28;20024;-82
2021/12/21 03:17:05;;;;;;;5.85;2.35;;;6.00;50.00;;;;;;5057262;28;20391;-83
2021/12/21 03:26:23;;;;;;;4.85;2.45;;;5.70;50.40;;;;;;5074219;28;20045;-82
2021/12/21 04:16:19;;;;;;;4.45;2.00;;;5.40;49.80;;;;;;5073932;28;20067;-87
2021/12/21 04:18:45;;;;;;;4.00;2.08;;;5.10;50.00;;;;;;5056464;28;20074;-87
2021/12/21 04:21:14;;;;;;;5.15;2.42;;;5.30;49.80;;;;;;5056480;28;20028;-86
2021/12/21 04:23:59;;;;;;;4.95;2.10;;;5.50;49.20;;;;;;5056162;28;20056;-86
2021/12/21 04:26:26;;;;;;;4.63;1.92;;;5.90;48.70;;;;;;5056123;28;20037;-86
2021/12/21 04:28:52;;;;;;;4.95;2.45;;;5.70;48.20;;;;;;5056136;28;20123;-86
2021/12/21 04:31:17;;;;;;;4.05;2.00;;;5.70;49.30;;;;;;5056305;28;20115;-86
2021/12/21 04:33:44;;;;;;;3.88;2.08;;;6.00;49.00;;;;;;5055960;28;20036;-86
2021/12/21 04:36:12;;;;;;;4.90;1.85;;;6.20;48.30;;;;;;5056400;28;20032;-85
2021/12/21 04:38:42;;;;;;;4.60;2.10;;;6.10;48.30;;;;;;5055649;28;20024;-86
2021/12/21 04:41:20;;;;;;;4.35;2.00;;;6.30;47.60;;;;;;5056690;28;20032;-86
2021/12/21 04:43:58;;;;;;;4.32;1.92;;;5.90;48.00;;;;;;5056081;28;20040;-86
2021/12/21 04:46:26;;;;;;;3.85;1.98;;;5.70;48.70;;;;;;5055863;28;20111;-85
2021/12/21 05:33:28;;;;;;;3.75;1.90;;;6.50;47.60;;;;;;4991819;28;20050;-83
2021/12/21 05:35:55;;;;;;;4.15;2.10;;;6.50;46.90;;;;;;4976651;28;20065;-84
2021/12/21 05:38:29;;;;;;;4.13;1.83;;;6.40;46.80;;;;;;4976397;28;20037;-81
2021/12/21 05:40:57;;;;;;;6.07;2.70;;;6.30;47.30;;;;;;4965439;28;20118;-86
2021/12/21 05:43:22;;;;;;;10.90;4.25;;;6.30;47.10;;;;;;4976693;28;20085;-81
2021/12/21 05:45:48;;;;;;;9.60;4.13;;;6.00;46.80;;;;;;4976877;28;20034;-86
2021/12/21 05:48:27;;;;;;;6.95;2.22;;;6.20;47.10;;;;;;4631784;28;10000094;-80
2021/12/21 05:50:53;;;;;;;4.32;2.20;;;5.90;48.00;;;;;;4976546;28;20057;-79
2021/12/21 05:53:19;;;;;;;5.40;2.17;;;5.90;48.30;;;;;;4984718;28;20066;-81
2021/12/21 05:55:48;;;;;;;5.70;3.20;;;5.40;49.30;;;;;;4967886;28;20022;-81
2021/12/21 05:58:53;;;;;;;8.55;4.80;;;5.30;49.50;;;;;;4970298;28;20425;-83
2021/12/21 06:01:35;;;;;;;8.48;4.40;;;5.20;49.70;;;;;;4953975;28;20050;-81
2021/12/21 06:04:24;;;;;;;13.85;8.15;;;5.80;48.90;;;;;;4954693;29;20383;-82
2021/12/21 06:14:32;;;;;;;15.27;6.82;;;6.30;47.30;;;;;;4912549;29;20204;-82
2021/12/21 06:31:18;;;;;;;4.07;2.30;;;6.30;48.30;;;;;;5367499;23;20572;-86
2021/12/21 06:33:48;;;;;;;9.30;4.28;;;5.80;48.70;;;;;;5017150;28;20036;-84
2021/12/21 06:36:49;;;;;;;13.20;6.75;;;5.70;48.80;;;;;;5017716;28;20030;-84
2021/12/21 06:39:18;;;;;;;11.10;3.78;;;5.90;49.70;;;;;;5029788;28;20507;-82
2021/12/21 06:41:47;;;;;;;12.23;4.57;;;5.80;49.30;;;;;;4998583;28;20424;-82
2021/12/21 06:44:16;;;;;;;5.50;3.20;;;5.60;49.60;;;;;;4998696;28;20022;-82
2021/12/21 06:51:57;;;;;;;12.23;7.25;;;5.60;50.00;;;;;;5015948;28;20044;-83
2021/12/21 06:54:23;;;;;;;6.13;3.30;;;6.00;49.70;;;;;;4999295;28;20108;-80
2021/12/21 06:56:49;;;;;;;7.70;3.70;;;5.80;49.10;;;;;;5015558;28;20446;-80
2021/12/21 06:59:15;;;;;;;10.65;5.30;;;5.80;49.60;;;;;;4997447;28;20026;-81
2021/12/21 07:01:41;;;;;;;8.38;4.38;;;5.90;49.20;;;;;;4997749;28;20032;-80
2021/12/21 07:04:08;;;;;;;5.25;2.53;;;5.90;49.70;;;;;;4997653;28;20108;-80
2021/12/21 07:06:38;;;;;;;6.10;3.13;;;5.90;48.60;;;;;;5015372;28;20041;-81
2021/12/21 07:09:13;;;;;;;20.85;12.10;;;6.00;49.30;;;;;;4997827;28;20461;-81
2021/12/21 07:11:45;;;;;;;16.30;8.10;;;6.30;48.80;;;;;;4997707;28;20489;-80
2021/12/21 07:19:44;;;;;;;13.48;8.30;;;6.50;48.70;;;;;;5014987;28;20704;-80
2021/12/21 07:22:10;;;;;;;21.40;14.10;;;6.70;48.30;;;;;;4996966;28;20072;-81
2021/12/21 07:24:36;;;;;;;12.93;7.78;;;6.20;48.50;;;;;;4997201;28;20096;-82
2021/12/21 07:27:02;;;;;;;7.85;3.88;;;6.50;48.50;;;;;;4997933;28;20033;-81
2021/12/21 07:29:28;;;;;;;13.50;3.65;;;6.60;47.90;;;;;;4996880;28;20026;-81
2021/12/21 07:31:54;;;;;;;9.15;4.65;;;6.20;48.90;;;;;;5014681;28;20078;-84
2021/12/21 07:34:20;;;;;;;5.15;2.80;;;6.30;48.40;;;;;;5015007;28;20384;-81
2021/12/21 07:36:46;;;;;;;7.55;4.10;;;6.10;48.70;;;;;;5014725;28;20033;-82
2021/12/21 07:39:14;;;;;;;6.47;3.20;;;5.90;49.00;;;;;;4997080;28;20025;-82
2021/12/21 07:41:41;;;;;;;10.23;3.55;;;5.90;49.70;;;;;;4997201;28;20034;-80
2021/12/21 07:44:06;;;;;;;5.80;2.42;;;5.80;49.60;;;;;;4997306;28;20029;-81
2021/12/21 07:46:32;;;;;;;4.97;2.38;;;5.60;49.40;;;;;;5014753;28;20392;-80
2021/12/21 07:48:58;;;;;;;6.05;3.33;;;5.40;49.60;;;;;;4997518;28;20053;-84
2021/12/21 07:51:24;;;;;;;8.45;4.57;;;5.70;50.00;;;;;;4996794;28;20025;-81
2021/12/21 07:53:50;;;;;;;7.10;3.45;;;6.00;49.70;;;;;;4996990;28;20420;-81
2021/12/21 07:56:17;;;;;;;5.25;2.63;;;5.80;49.20;;;;;;4996874;28;20026;-82
2021/12/21 07:58:44;;;;;;;5.65;2.80;;;6.00;49.50;;;;;;4996770;28;20053;-79
2021/12/21 08:01:10;;;;;;;8.55;4.85;;;5.80;49.80;;;;;;4996868;28;20052;-83
2021/12/21 08:03:37;;;;;;;4.95;2.72;;;5.90;49.50;;;;;;5014005;28;20026;-85
2021/12/21 08:06:05;;;;;;;6.93;3.50;;;5.70;49.60;;;;;;4996524;28;20041;-80
2021/12/21 08:08:31;;;;;;;6.40;3.38;;;5.40;50.50;;;;;;4996465;28;20026;-80
2021/12/21 08:11:17;;;;;;;6.97;3.03;;;5.30;51.00;;;;;;4995816;28;20041;-79
2021/12/21 08:13:47;;;;;;;7.57;3.50;;;5.50;50.80;;;;;;5013837;28;20029;-79
2021/12/21 08:16:13;;;;;;;7.97;3.30;;;5.60;50.70;;;;;;4996011;28;20030;-80
2021/12/21 08:18:39;;;;;;;5.32;2.85;;;5.70;51.10;;;;;;4996036;28;20508;-80
2021/12/21 08:21:06;;;;;;;6.85;3.38;;;6.00;50.80;;;;;;4995732;28;20507;-80
2021/12/21 08:23:32;;;;;;;8.52;3.55;;;6.40;49.90;;;;;;4996066;28;20022;-79
2021/12/21 08:25:57;;;;;;;8.65;3.70;;;6.60;49.00;;;;;;5013320;28;20034;-79
2021/12/21 08:28:24;;;;;;;8.40;3.40;;;6.40;50.30;;;;;;4995706;28;20029;-80
2021/12/21 08:30:50;;;;;;;7.28;3.33;;;6.50;50.10;;;;;;4995644;28;20022;-80
2021/12/21 08:33:16;;;;;;;6.78;3.30;;;6.10;50.80;;;;;;4291939;28;10000698;-82
2021/12/21 08:35:42;;;;;;;7.78;4.20;;;6.20;51.20;;;;;;4976299;28;20026;-80
2021/12/21 08:38:13;;;;;;;8.18;4.20;;;5.90;51.50;;;;;;4976339;28;20417;-79
2021/12/21 08:40:40;;;;;;;7.93;3.50;;;5.70;52.80;;;;;;4976450;28;20080;-80
2021/12/21 08:43:10;;;;;;;6.13;3.53;;;5.90;52.70;;;;;;4976420;28;20033;-79
2021/12/21 08:45:36;;;;;;;7.65;3.95;;;6.20;52.50;;;;;;4976508;28;20026;-83
2021/12/21 08:48:02;;;;;;;6.93;3.38;;;7.20;51.80;;;;;;4976865;28;20066;-80
2021/12/21 08:50:29;;;;;;;7.72;3.60;;;8.50;49.40;;;;;;4976327;28;20117;-84
2021/12/21 08:52:56;;;;;;;6.22;3.25;;;9.30;47.10;;;;;;4976362;28;20092;-82
2021/12/21 08:55:22;;;;;;;8.68;3.50;;;9.90;46.90;;;;;;4976290;28;20548;-80
2021/12/21 08:57:48;;;;;;;8.20;3.80;;;11.30;44.90;;;;;;4976443;28;20052;-81
2021/12/21 09:00:18;;;;;;;7.78;3.72;;;11.80;42.90;;;;;;4976676;28;20473;-81
2021/12/21 09:02:44;;;;;;;7.30;3.33;;;12.70;43.00;;;;;;4976714;28;20025;-83
2021/12/21 09:05:24;;;;;;;8.88;4.28;;;12.60;42.40;;;;;;4976904;28;20050;-83
2021/12/21 09:08:10;;;;;;;9.52;3.60;;;12.30;43.00;;;;;;4977177;28;20468;-84
2021/12/21 09:10:38;;;;;;;7.68;3.97;;;12.10;43.70;;;;;;4993915;28;20058;-84
2021/12/21 09:13:04;;;;;;;8.45;4.40;;;12.20;43.90;;;;;;4976805;28;20027;-82
2021/12/21 09:15:46;;;;;;;8.45;4.35;;;12.20;43.10;;;;;;4976672;28;20037;-87
2021/12/21 09:18:12;;;;;;;8.85;4.68;;;12.20;44.10;;;;;;4993638;28;20161;-81
2021/12/21 09:20:38;;;;;;;10.07;4.70;;;11.70;44.00;;;;;;4993443;28;20113;-83
2021/12/21 09:23:04;;;;;;;8.13;4.35;;;11.90;44.20;;;;;;4995227;28;20108;-82
2021/12/21 09:25:54;;;;;;;9.95;5.40;;;12.10;44.20;;;;;;4997686;28;20465;-82
2021/12/21 09:28:28;;;;;;;9.03;5.10;;;11.50;44.90;;;;;;4997715;28;20023;-85
2021/12/21 09:31:03;;;;;;;8.40;4.75;;;11.90;45.30;;;;;;4980499;28;20272;-83
2021/12/21 09:33:29;;;;;;;10.38;4.97;;;12.70;44.30;;;;;;4980216;28;20073;-82
2021/12/21 09:35:54;;;;;;;9.10;5.00;;;13.40;43.60;;;;;;4997573;28;20389;-81
2021/12/21 09:38:20;;;;;;;8.75;4.90;;;13.70;43.00;;;;;;4980140;28;20034;-81
2021/12/21 09:41:39;;;;;;;9.73;5.72;;;14.00;43.00;;;;;;4998736;28;20542;-83
2021/12/21 09:48:02;;;;;;;9.20;4.97;;;13.60;43.00;;;;;;4956548;29;20617;-84
2021/12/21 09:51:10;;;;;;;9.10;5.47;;;14.20;42.50;;;;;;4970255;28;20046;-84
2021/12/21 10:00:34;;;;;;;8.82;5.10;;;15.00;42.00;;;;;;4937202;29;20031;-86
2021/12/21 10:03:51;;;;;;;9.45;5.43;;;15.70;41.50;;;;;;4937152;29;20036;-82
2021/12/21 10:24:00;;;;;;;10.25;5.20;;;14.80;42.10;;;;;;4880604;29;20127;-86
2021/12/21 10:26:33;;;;;;;9.55;5.60;;;14.40;42.00;;;;;;4880161;29;20116;-82
2021/12/21 10:29:13;;;;;;;9.98;5.88;;;13.70;42.60;;;;;;4880623;29;20037;-83
2021/12/21 10:31:51;;;;;;;11.52;7.35;;;13.80;43.20;;;;;;4880228;29;20092;-85
2021/12/21 10:35:06;;;;;;;12.88;7.53;;;13.90;41.80;;;;;;4918062;29;20036;-87
2021/12/21 10:40:49;;;;;;;12.20;6.50;;;14.70;41.80;;;;;;4842923;29;20038;-88
2021/12/21 10:43:42;;;;;;;10.45;6.88;;;13.60;42.10;;;;;;4833654;29;20046;-84
2021/12/21 10:46:11;;;;;;;10.40;5.30;;;12.20;44.60;;;;;;4842781;29;20058;-83
2021/12/21 10:49:21;;;;;;;7.72;4.45;;;11.20;45.00;;;;;;4843493;29;20038;-84
2021/12/21 10:52:14;;;;;;;10.05;5.72;;;10.70;46.30;;;;;;4843327;29;20478;-83
2021/12/21 10:55:15;;;;;;;9.88;5.32;;;10.00;47.40;;;;;;4879662;29;20040;-83
2021/12/21 10:57:41;;;;;;;8.77;4.70;;;9.70;47.10;;;;;;4879903;29;20041;-85
2021/12/21 11:00:14;;;;;;;10.20;4.68;;;8.80;48.00;;;;;;4864775;29;20044;-84
2021/12/21 11:02:50;;;;;;;11.63;6.55;;;8.00;50.80;;;;;;4865245;29;20089;-82
2021/12/21 11:05:17;;;;;;;9.88;5.35;;;8.10;50.60;;;;;;4906560;22;20016;-83
2021/12/21 11:10:26;;;;;;;12.27;7.30;;;7.90;50.20;;;;;;5016428;28;20024;-82
2021/12/21 11:12:58;;;;;;;8.23;5.03;;;8.30;49.70;;;;;;4996573;28;20040;-82
2021/12/21 11:15:30;;;;;;;11.80;5.97;;;8.80;48.90;;;;;;4997967;28;20022;-84
2021/12/21 11:17:58;;;;;;;9.60;5.32;;;9.20;48.70;;;;;;5015669;28;20068;-82
2021/12/21 11:20:24;;;;;;;12.95;7.68;;;9.40;48.40;;;;;;4998670;28;20056;-82
2021/12/21 11:22:57;;;;;;;9.27;5.57;;;9.50;48.30;;;;;;5015941;28;20468;-82
2021/12/21 11:25:24;;;;;;;12.43;6.45;;;9.00;48.70;;;;;;5015797;28;20105;-82
2021/12/21 11:27:50;;;;;;;11.88;7.15;;;9.10;49.20;;;;;;5015329;28;20093;-82
2021/12/21 11:30:20;;;;;;;9.55;5.53;;;8.90;48.90;;;;;;4997624;28;20116;-82
2021/12/21 11:32:49;;;;;;;9.10;5.40;;;8.30;49.20;;;;;;4998220;28;20520;-82
2021/12/21 11:37:46;;;;;;;11.23;7.25;;;7.80;50.40;;;;;;5015146;28;20028;-83
2021/12/21 11:40:24;;;;;;;9.02;5.50;;;7.80;51.20;;;;;;5014986;28;20472;-82
2021/12/21 11:42:50;;;;;;;10.82;6.70;;;8.50;50.30;;;;;;4997541;28;20040;-82
2021/12/21 11:45:27;;;;;;;8.95;5.30;;;8.60;49.70;;;;;;4997761;28;20357;-82
2021/12/21 11:47:55;;;;;;;8.30;4.03;;;8.80;49.10;;;;;;4996739;28;20041;-81
2021/12/21 11:50:21;;;;;;;7.78;4.55;;;8.70;49.00;;;;;;5015500;28;20018;-81
2021/12/21 11:52:49;;;;;;;7.25;3.92;;;8.50;49.40;;;;;;4997559;28;20029;-84
2021/12/21 11:55:17;;;;;;;6.50;3.85;;;8.50;48.90;;;;;;4997364;28;20045;-83
2021/12/21 11:57:52;;;;;;;8.13;4.82;;;8.50;49.00;;;;;;4997019;28;20018;-82
2021/12/21 12:00:22;;;;;;;7.25;3.47;;;8.60;48.90;;;;;;4998193;28;20491;-82
2021/12/21 12:02:50;;;;;;;8.00;4.00;;;8.00;48.70;;;;;;5014164;28;20018;-80
2021/12/21 12:05:23;;;;;;;7.60;3.70;;;8.20;50.00;;;;;;5013806;28;20087;-82
2021/12/21 12:08:10;;;;;;;6.32;3.70;;;8.20;49.40;;;;;;5016089;28;20120;-81
2021/12/21 12:10:57;;;;;;;10.50;5.53;;;8.40;49.50;;;;;;5033877;28;20100;-82
2021/12/21 12:13:32;;;;;;;7.93;4.25;;;8.50;49.00;;;;;;5007070;28;20408;-83
2021/12/21 12:16:04;;;;;;;7.78;4.35;;;8.30;49.70;;;;;;4996771;28;20369;-80
2021/12/21 12:18:47;;;;;;;7.82;5.13;;;8.50;49.60;;;;;;4996424;28;20109;-82
2021/12/21 12:21:17;;;;;;;6.82;4.90;;;8.20;49.30;;;;;;4996615;28;20087;-83
2021/12/21 12:24:01;;;;;;;8.10;4.45;;;8.20;49.70;;;;;;4996922;28;20457;-84
2021/12/21 12:26:28;;;;;;;7.75;4.72;;;8.10;49.40;;;;;;4996584;28;20030;-82
2021/12/21 12:29:15;;;;;;;6.55;3.55;;;8.20;49.80;;;;;;5013740;28;20022;-80
2021/12/21 12:31:46;;;;;;;11.82;5.57;;;8.40;49.10;;;;;;4995359;28;20033;-86
2021/12/21 12:34:26;;;;;;;360.05;184.65;;;8.90;48.80;;;;;;4996122;28;20018;-90
2021/12/21 12:36:55;;;;;;;222.45;139.07;;;9.00;47.60;;;;;;4996050;28;20015;-87
2021/12/21 12:39:37;;;;;;;57.33;46.40;;;8.50;48.80;;;;;;4996657;28;20530;-86
2021/12/21 12:42:13;;;;;;;40.10;33.28;;;8.60;49.10;;;;;;5010941;28;20673;-82
2021/12/21 12:44:41;;;;;;;69.07;55.53;;;8.80;48.80;;;;;;5013946;28;20075;-82
2021/12/21 12:47:39;;;;;;;94.07;56.35;;;8.90;48.60;;;;;;4990108;28;20073;-88
2021/12/21 12:50:30;;;;;;;30.90;22.98;;;8.90;48.00;;;;;;5013631;28;20101;-86
2021/12/21 12:52:59;;;;;;;44.38;34.58;;;8.20;49.10;;;;;;5014339;28;20024;-81
2021/12/21 12:55:36;;;;;;;11.63;7.18;;;8.10;49.20;;;;;;4996198;23;20027;-83
2021/12/21 12:58:11;;;;;;;10.55;6.55;;;7.50;50.70;;;;;;5032903;28;20040;-82
2021/12/21 13:00:37;;;;;;;11.10;6.43;;;7.70;50.50;;;;;;5035348;28;20086;-84
2021/12/21 13:05:39;;;;;;;12.30;5.88;;;7.80;49.90;;;;;;5158770;23;20544;-81
2021/12/21 13:08:09;;;;;;;8.23;4.25;;;8.50;49.70;;;;;;4996202;28;20038;-82
2021/12/21 13:10:42;;;;;;;7.50;4.40;;;8.60;48.80;;;;;;5013824;28;20018;-85
2021/12/21 13:13:11;;;;;;;8.85;4.63;;;8.70;48.80;;;;;;4996221;28;20084;-85
2021/12/21 13:15:42;;;;;;;15.82;11.43;;;8.60;48.70;;;;;;4995832;28;20396;-80
2021/12/21 13:18:12;;;;;;;11.57;7.60;;;8.80;48.10;;;;;;4995647;28;20357;-83
2021/12/21 13:20:38;;;;;;;;;;;8.40;48.40;;;;;;4983531;28;20025;-89
2021/12/21 13:23:26;;;;;;;10.85;7.30;;;8.40;48.80;;;;;;4976480;28;19988;-86
2021/12/21 13:25:53;;;;;;;6.88;4.60;;;8.60;49.20;;;;;;4976493;28;20038;-87
2021/12/21 13:28:19;;;;;;;12.68;5.63;;;8.60;48.40;;;;;;4976542;28;20030;-84
2021/12/21 13:30:49;;;;;;;25.13;14.23;;;8.90;48.40;;;;;;4994040;28;20018;-82
2021/12/21 13:33:27;;;;;;;15.77;8.23;;;9.00;47.20;;;;;;4993886;28;20093;-83
2021/12/21 13:36:05;;;;;;;15.80;8.88;;;8.70;48.30;;;;;;4993975;28;20018;-83
2021/12/21 13:38:40;;;;;;;9.43;7.00;;;8.50;48.40;;;;;;4976366;28;20032;-82
2021/12/21 13:41:13;;;;;;;8.98;5.40;;;8.40;48.50;;;;;;4992460;28;20089;-82
2021/12/21 13:43:59;;;;;;;17.25;13.45;;;8.70;48.10;;;;;;4992335;28;20109;-83
2021/12/21 13:50:58;;;;;;;34.50;20.55;;;8.90;48.40;;;;;;4914897;29;20043;-83
2021/12/21 13:53:44;;;;;;;24.35;14.25;;;9.00;48.10;;;;;;4861928;29;20473;-83
2021/12/21 13:56:13;;;;;;;23.23;13.68;;;8.50;47.50;;;;;;4877498;29;20040;-82
2021/12/21 13:58:42;;;;;;;31.92;21.70;;;8.20;48.20;;;;;;4924149;29;20071;-82
2021/12/21 14:01:31;;;;;;;16.77;10.73;;;8.30;47.70;;;;;;4934070;29;20039;-82
2021/12/21 14:04:07;;;;;;;30.45;22.77;;;8.00;48.20;;;;;;4917843;29;20107;-81
2021/12/21 14:06:39;;;;;;;38.97;29.10;;;7.90;48.40;;;;;;4933455;29;20070;-83
2021/12/21 14:09:11;;;;;;;9.50;5.72;;;8.00;48.50;;;;;;4933647;29;20024;-82
2021/12/21 14:11:39;;;;;;;25.75;19.02;;;8.00;48.40;;;;;;4921271;29;20030;-82
2021/12/21 14:14:34;;;;;;;64.35;57.58;;;7.90;48.90;;;;;;4936973;29;20020;-81
2021/12/21 14:17:12;;;;;;;91.60;82.03;;;7.70;48.50;;;;;;4919544;29;20032;-82
2021/12/21 14:20:08;;;;;;;14.15;10.68;;;8.10;48.30;;;;;;4937045;29;20166;-83
2021/12/21 14:22:36;;;;;;;48.83;43.53;;;7.80;48.90;;;;;;4938280;29;20028;-82
2021/12/21 14:25:13;;;;;;;30.30;26.92;;;8.10;48.50;;;;;;4920867;29;20042;-83
2021/12/21 14:27:39;;;;;;;23.67;21.60;;;8.20;48.80;;;;;;4933808;28;20032;-82
2021/12/21 14:30:10;;;;;;;18.70;16.77;;;8.40;48.30;;;;;;4975372;28;20034;-82
2021/12/21 14:33:48;;;;;;;29.75;22.95;;;8.40;48.10;;;;;;4978838;28;20092;-82
2021/12/21 14:35:40;;;;;;;42.85;31.85;;;8.50;47.70;;;;;;4983113;28;20404;-82
2021/12/21 14:38:16;;;;;;;58.35;37.10;;;8.50;47.70;;;;;;4978831;28;20084;-81
2021/12/21 14:40:50;;;;;;;37.28;32.67;;;8.80;47.70;;;;;;4979131;28;20524;-81
2021/12/21 14:43:24;;;;;;;30.25;26.13;;;8.90;47.10;;;;;;4979012;28;20030;-81
2021/12/21 14:45:50;;;;;;;25.33;20.77;;;8.90;47.50;;;;;;4996182;28;20018;-81
2021/12/21 14:48:17;;;;;;;15.85;14.32;;;8.90;47.50;;;;;;4979103;28;20022;-81
2021/12/21 14:50:48;;;;;;;13.43;10.38;;;8.70;47.30;;;;;;4978954;28;20022;-81
2021/12/21 14:53:17;;;;;;;10.05;6.65;;;8.60;47.90;;;;;;4979217;28;20018;-82
2021/12/21 14:55:43;;;;;;;7.90;6.75;;;8.60;47.50;;;;;;4978930;28;20027;-82
2021/12/21 14:58:14;;;;;;;9.15;6.68;;;8.50;47.80;;;;;;4978756;28;20029;-81
2021/12/21 15:00:48;;;;;;;11.50;7.63;;;8.30;48.10;;;;;;4996238;28;20018;-84
2021/12/21 15:03:16;;;;;;;7.00;4.68;;;8.30;48.50;;;;;;4996418;28;20022;-82
2021/12/21 15:05:43;;;;;;;7.82;4.38;;;8.30;48.50;;;;;;4979785;28;20042;-81
2021/12/21 15:08:14;;;;;;;24.73;14.70;;;8.00;49.30;;;;;;4978603;28;20022;-80
2021/12/21 15:10:42;;;;;;;44.78;34.60;;;8.20;49.40;;;;;;4978079;28;20048;-80
2021/12/21 15:13:10;;;;;;;97.78;71.95;;;8.50;49.60;;;;;;4978427;28;20502;-82
2021/12/21 15:15:37;;;;;;;20.92;15.75;;;8.70;50.20;;;;;;4995562;28;20037;-82
2021/12/21 15:18:03;;;;;;;28.05;22.48;;;8.70;49.50;;;;;;4995784;28;20053;-82
2021/12/21 15:20:30;;;;;;;15.23;8.10;;;8.20;49.90;;;;;;4978367;28;20028;-81
2021/12/21 15:22:57;;;;;;;14.32;8.85;;;7.70;51.00;;;;;;4995888;28;20365;-86
2021/12/21 15:25:26;;;;;;;17.33;12.50;;;7.90;51.00;;;;;;4978386;28;20030;-81
2021/12/21 15:27:52;;;;;;;11.07;6.82;;;8.00;50.90;;;;;;4978554;28;20043;-84
2021/12/21 15:30:22;;;;;;;10.48;5.53;;;8.00;50.40;;;;;;4978129;28;20421;-82
2021/12/21 15:32:49;;;;;;;13.33;6.80;;;7.70;50.70;;;;;;4978908;28;20026;-82
2021/12/21 15:35:16;;;;;;;13.35;5.95;;;7.00;52.00;;;;;;4977993;28;20029;-83
2021/12/21 15:37:44;;;;;;;128.02;110.15;;;7.00;52.30;;;;;;4978207;28;20030;-83
2021/12/21 15:40:23;;;;;;;19.00;13.30;;;7.40;51.90;;;;;;4995434;28;20019;-84
2021/12/21 15:50:14;;;;;;;12.65;6.18;;;8.10;50.30;;;;;;4822767;29;20111;-83
2021/12/21 15:56:14;;;;;;;13.35;6.13;;;8.10;49.80;;;;;;4823842;29;20144;-83
2021/12/21 15:59:41;;;;;;;;;;;;;;;;;;;;;
2021/12/21 16:02:28;;;;;;;11.50;6.47;;;7.70;50.40;;;;;;4823359;29;20058;-83
2021/12/21 16:05:37;;;;;;;14.57;7.40;;;7.90;50.10;;;;;;4815010;29;20047;-83
2021/12/21 16:37:45;;;;;;;51.08;26.50;;;7.70;51.70;;;;;;5120228;22;20447;-84
2021/12/21 17:07:50;;;;;;;29.20;18.98;;;7.70;52.50;;;;;;4954043;29;20058;-82
2021/12/21 17:13:35;;;;;;;;;;;7.50;52.60;;;;;;5009477;23;20519;-80
2021/12/21 17:16:09;;;;;;;51.65;32.50;;;7.50;52.20;;;;;;5226892;23;20320;31
2021/12/21 17:18:35;;;;;;;42.70;25.52;;;7.50;52.00;;;;;;4902416;29;20039;-82
2021/12/21 17:21:00;;;;;;;31.17;17.25;;;7.50;52.30;;;;;;4936210;29;20023;-80
2021/12/21 17:23:29;;;;;;;48.17;34.58;;;7.40;52.30;;;;;;4936431;29;20046;-82
2021/12/21 17:25:55;;;;;;;27.33;14.00;;;7.40;52.50;;;;;;4936087;29;20470;-81
2021/12/21 17:28:22;;;;;;;25.95;13.90;;;7.50;52.30;;;;;;4934877;29;20467;-82
2021/12/21 17:30:48;;;;;;;30.35;14.63;;;7.60;51.90;;;;;;4936211;29;20028;-82
2021/12/21 17:33:15;;;;;;;28.05;15.57;;;7.80;51.40;;;;;;4934681;29;20024;-83
2021/12/21 17:35:43;;;;;;;28.88;16.52;;;7.80;51.70;;;;;;4918905;29;20027;-81
2021/12/21 17:38:09;;;;;;;27.05;13.90;;;7.80;51.30;;;;;;4935672;29;20032;-82
2021/12/21 17:40:38;;;;;;;34.38;17.33;;;7.50;52.00;;;;;;4934955;29;20028;-82
2021/12/21 17:43:05;;;;;;;50.95;23.67;;;7.60;52.10;;;;;;4919116;29;20490;-81
2021/12/21 17:45:32;;;;;;;20.38;10.75;;;7.60;52.20;;;;;;4937053;29;20051;-82
2021/12/21 17:50:36;;;;;;;37.10;17.65;;;7.40;52.70;;;;;;5174896;23;20055;-81
2021/12/21 17:58:41;;;;;;;50.03;22.27;;;7.60;52.00;;;;;;4978765;23;20430;-80
2021/12/21 18:01:06;;;;;;;29.75;14.50;;;7.60;52.00;;;;;;4976517;28;20524;-82
2021/12/21 18:03:32;;;;;;;22.38;10.68;;;7.60;51.70;;;;;;4978959;28;20137;-81
2021/12/21 18:05:58;;;;;;;44.03;23.73;;;7.60;51.80;;;;;;4978554;28;20030;-79
2021/12/21 18:08:26;;;;;;;51.40;23.65;;;7.70;51.60;;;;;;4979710;28;20026;-86